Time;durP1;ratioP1;P1;durP2;ratioP2;P2;SDS_P1;SDS_P2;PMS_P1;PMS_P2;Temp;Humidity;BMP_temperature;BMP_pressure;BME280_temperature;BME280_humidity;BME280_pressure;Samples;Min_cycle;Max_cycle;Signal;HPM_P1;HPM_P2
2022/02/10 00:18:46;;;;;;;23.05;6.68;;;9.80;55.90;;;;;;6240078;28;20012;-70
2022/02/10 00:35:16;;;;;;;19.42;7.55;;;9.70;56.00;;;;;;6240317;28;20017;-69
2022/02/10 00:38:19;;;;;;;21.85;7.68;;;9.60;55.70;;;;;;6259793;28;20029;-69
2022/02/10 00:41:21;;;;;;;25.88;7.35;;;9.60;55.70;;;;;;6242031;28;20037;-69
2022/02/10 00:44:22;;;;;;;23.73;7.72;;;9.60;55.70;;;;;;6257626;28;20120;-69
2022/02/10 00:47:26;;;;;;;22.30;8.07;;;9.60;55.70;;;;;;6239638;28;20068;-69
2022/02/10 00:50:29;;;;;;;20.75;8.57;;;9.60;55.80;;;;;;6243517;28;20176;-71
2022/02/10 00:53:32;;;;;;;29.95;8.68;;;9.50;56.00;;;;;;6241071;28;20030;-69
2022/02/10 00:56:33;;;;;;;20.60;8.48;;;9.40;56.10;;;;;;6249057;28;20133;-69
2022/02/10 00:59:58;;;;;;;21.02;8.25;;;9.40;56.30;;;;;;6246730;28;20022;-70
2022/02/10 01:12:58;;;;;;;22.45;7.65;;;9.00;57.40;;;;;;6236015;28;20045;-70
2022/02/10 01:32:56;;;;;;;18.90;7.50;;;8.70;58.60;;;;;;6194330;28;20600;-70
2022/02/10 01:35:57;;;;;;;22.67;8.70;;;8.80;58.60;;;;;;6175516;28;20065;-71
2022/02/10 01:38:58;;;;;;;21.83;7.78;;;8.80;58.60;;;;;;6183048;28;20533;-70
2022/02/10 02:05:25;;;;;;;22.00;8.63;;;8.50;58.90;;;;;;6144278;28;20043;-70
2022/02/10 02:08:28;;;;;;;21.88;8.60;;;8.50;59.00;;;;;;6125611;29;20035;-69
2022/02/10 02:11:29;;;;;;;21.35;8.98;;;8.50;58.90;;;;;;6143188;28;20059;-69
2022/02/10 02:18:52;;;;;;;18.58;7.75;;;8.50;59.10;;;;;;6143993;28;20137;-69
2022/02/10 02:21:58;;;;;;;35.00;9.13;;;8.40;59.20;;;;;;6144340;29;20336;-69
2022/02/10 02:24:59;;;;;;;25.08;9.18;;;8.40;59.30;;;;;;6171745;28;20049;-69
2022/02/10 02:28:04;;;;;;;28.80;8.38;;;8.40;59.30;;;;;;6199671;28;20026;-69
2022/02/10 02:31:16;;;;;;;19.00;7.72;;;8.40;59.20;;;;;;6199828;28;20022;-69
2022/02/10 02:37:49;;;;;;;21.42;8.30;;;8.40;59.10;;;;;;6213332;28;20434;-69
2022/02/10 03:07:49;;;;;;;27.35;7.10;;;8.40;58.70;;;;;;6245910;28;20100;-69
2022/02/10 03:11:06;;;;;;;25.73;8.20;;;8.30;58.70;;;;;;6245053;28;20026;-68
2022/02/10 03:14:15;;;;;;;22.10;8.70;;;8.30;58.80;;;;;;6245839;28;20104;-69
2022/02/10 04:14:17;;;;;;;14.82;7.07;;;7.90;58.80;;;;;;6237744;28;20024;-69
2022/02/10 04:17:43;;;;;;;10.65;6.30;;;7.90;58.80;;;;;;6239960;28;20128;-70
2022/02/10 04:27:04;;;;;;;14.38;6.13;;;7.90;58.60;;;;;;6241694;28;20036;-68
2022/02/10 05:33:45;;;;;;;32.00;12.82;;;7.20;61.10;;;;;;6188356;28;20030;-69
2022/02/10 05:36:47;;;;;;;25.63;11.95;;;7.30;61.20;;;;;;6171218;28;20426;-70
2022/02/10 05:39:50;;;;;;;30.25;12.00;;;7.20;61.20;;;;;;6173776;28;20034;-69
2022/02/10 05:55:36;;;;;;;22.90;7.97;;;7.30;61.30;;;;;;6183083;28;20650;-70
2022/02/10 06:51:33;;;;;;;27.15;8.43;;;7.00;62.70;;;;;;6163539;28;20027;-71
2022/02/10 07:04:49;;;;;;;16.48;6.88;;;7.00;62.50;;;;;;6149865;28;20175;-70
2022/02/10 07:47:27;;;;;;;16.02;7.40;;;7.00;62.10;;;;;;6240681;28;20116;-69
2022/02/10 07:53:58;;;;;;;24.10;8.50;;;7.00;62.10;;;;;;6236829;28;20029;-72
2022/02/10 07:57:27;;;;;;;21.98;6.65;;;7.00;62.00;;;;;;6243655;28;20449;-69
2022/02/10 08:26:06;;;;;;;18.05;7.65;;;7.30;61.40;;;;;;6248726;28;20033;-69
2022/02/10 08:28:25;;;;;;;14.57;7.22;;;7.90;60.70;;;;;;6240119;28;20083;-70
2022/02/10 08:57:11;;;;;;;18.05;8.60;;;8.90;57.90;;;;;;6238124;28;20021;-71
2022/02/10 09:56:02;;;;;;;17.17;7.25;;;10.70;55.00;;;;;;6246974;28;20465;-71
2022/02/10 10:02:41;;;;;;;24.08;8.25;;;10.80;54.70;;;;;;6241695;28;20127;-70
2022/02/10 10:05:54;;;;;;;25.92;9.30;;;10.90;54.70;;;;;;6246549;28;20048;-70
2022/02/10 10:09:23;;;;;;;21.83;7.55;;;10.90;54.60;;;;;;6254331;28;20045;-71
2022/02/10 10:25:22;;;;;;;33.47;9.95;;;11.40;54.10;;;;;;6242385;28;20389;-70
2022/02/10 10:47:01;;;;;;;21.83;8.57;;;13.20;50.60;;;;;;6243428;28;20045;-69
2022/02/10 10:58:15;;;;;;;15.80;8.32;;;13.90;49.00;;;;;;6242883;28;20425;-70
2022/02/10 11:39:39;;;;;;;15.27;7.82;;;17.90;39.70;;;;;;6159266;28;20043;-70
2022/02/10 11:42:48;;;;;;;21.25;7.68;;;18.40;39.00;;;;;;6161467;28;20088;-70
2022/02/10 12:30:56;;;;;;;6.65;3.58;;;21.80;30.00;;;;;;6245297;28;20040;-72
2022/02/10 13:23:22;;;;;;;12.20;5.32;;;18.10;34.60;;;;;;6245767;28;20064;-70
2022/02/10 14:14:12;;;;;;;10.18;4.32;;;16.80;36.90;;;;;;6234063;28;20155;-70
2022/02/10 14:17:17;;;;;;;9.55;4.45;;;16.80;37.00;;;;;;6227340;28;20057;-72
2022/02/10 14:20:33;;;;;;;11.82;4.45;;;16.80;37.00;;;;;;6241555;28;20446;-70
2022/02/10 14:30:22;;;;;;;13.70;4.93;;;16.90;37.00;;;;;;6242917;28;20075;-70
2022/02/10 14:33:26;;;;;;;16.50;4.85;;;16.90;37.10;;;;;;6245383;28;20577;-71
2022/02/10 14:36:43;;;;;;;14.27;5.13;;;16.90;37.10;;;;;;6241659;28;20512;-71
2022/02/10 14:40:55;;;;;;;11.90;4.90;;;16.90;37.10;;;;;;6258023;28;20021;-69
2022/02/10 16:18:13;;;;;;;19.85;5.40;;;16.70;38.30;;;;;;6244362;28;20056;-70
2022/02/10 16:21:26;;;;;;;16.45;4.93;;;16.60;38.40;;;;;;6257597;28;20120;-69
2022/02/10 16:24:31;;;;;;;12.43;4.68;;;16.60;38.50;;;;;;6251139;28;20033;-71
2022/02/10 16:27:34;;;;;;;15.35;5.10;;;16.60;38.60;;;;;;6242872;28;20022;-69
2022/02/10 16:30:39;;;;;;;21.88;5.47;;;16.60;38.70;;;;;;6247786;28;20385;-70
2022/02/10 16:33:43;;;;;;;31.33;5.93;;;16.50;38.70;;;;;;6249088;28;20014;-69
2022/02/10 16:36:45;;;;;;;20.05;5.90;;;16.50;38.90;;;;;;6245808;28;20397;-69
2022/02/10 16:39:50;;;;;;;12.57;5.70;;;16.50;39.00;;;;;;6243812;28;20561;-70
2022/02/10 16:42:56;;;;;;;27.90;5.47;;;16.50;39.10;;;;;;6240175;28;20022;-70
2022/02/10 16:45:58;;;;;;;21.42;5.90;;;16.40;39.20;;;;;;6245708;28;20072;-71
2022/02/10 16:48:58;;;;;;;29.25;6.88;;;16.30;39.20;;;;;;6246547;28;20031;-71
2022/02/10 16:52:00;;;;;;;29.20;6.97;;;16.30;39.30;;;;;;6244312;28;20018;-71
2022/02/10 16:58:29;;;;;;;17.65;5.93;;;16.20;39.40;;;;;;6243149;28;20030;-70
2022/02/10 17:27:29;;;;;;;22.65;8.10;;;15.60;40.60;;;;;;6239961;28;20442;-71
2022/02/10 17:37:28;;;;;;;24.08;6.97;;;15.40;41.10;;;;;;6171562;28;20130;-70
2022/02/10 17:53:37;;;;;;;11.32;5.18;;;15.10;42.00;;;;;;6171251;28;20066;-69
2022/02/10 17:56:40;;;;;;;21.52;5.88;;;15.00;42.10;;;;;;6171412;28;20600;-70
2022/02/10 17:59:41;;;;;;;13.48;5.43;;;15.00;42.20;;;;;;6171247;28;20030;-70
2022/02/10 18:02:42;;;;;;;19.60;7.13;;;15.00;42.30;;;;;;6170137;28;20038;-70
2022/02/10 18:06:31;;;;;;;26.08;7.13;;;14.90;42.40;;;;;;6158240;28;20205;-72
2022/02/10 18:16:00;;;;;;;18.73;5.95;;;14.80;42.80;;;;;;6247494;28;20112;-71
2022/02/10 18:19:10;;;;;;;28.63;6.05;;;14.70;42.70;;;;;;6245806;28;20063;-71
2022/02/10 18:28:35;;;;;;;9.77;4.78;;;14.70;43.00;;;;;;6245482;28;20032;-70
2022/02/10 19:08:10;;;;;;;28.95;6.22;;;14.10;44.70;;;;;;6240827;28;20108;-69
2022/02/10 19:11:14;;;;;;;23.80;6.28;;;14.00;45.00;;;;;;6239845;28;20340;-70
2022/02/10 19:14:18;;;;;;;16.50;6.35;;;14.00;45.80;;;;;;6260104;28;20498;-70
2022/02/10 19:17:21;;;;;;;18.10;7.22;;;13.90;45.20;;;;;;6242422;28;20511;-70
2022/02/10 19:20:23;;;;;;;17.70;7.10;;;13.90;45.20;;;;;;6239733;28;20022;-70
2022/02/10 19:23:25;;;;;;;15.23;7.30;;;13.90;45.10;;;;;;6240587;28;20034;-70
2022/02/10 19:26:26;;;;;;;30.73;7.70;;;13.80;45.00;;;;;;6227382;28;20045;-70
2022/02/10 19:29:28;;;;;;;15.60;6.50;;;13.80;44.90;;;;;;6242820;28;20022;-70
2022/02/10 19:32:31;;;;;;;22.13;6.78;;;13.80;44.90;;;;;;6241293;28;20026;-70
2022/02/10 19:35:38;;;;;;;18.45;6.85;;;13.80;44.80;;;;;;6226297;28;20029;-70
2022/02/10 19:38:39;;;;;;;21.50;6.63;;;13.70;44.80;;;;;;6241248;28;20040;-69
2022/02/10 19:41:43;;;;;;;16.50;5.53;;;13.70;44.70;;;;;;6246730;28;20033;-69
2022/02/10 19:44:44;;;;;;;10.95;5.22;;;13.70;44.70;;;;;;6255005;28;20353;-69
2022/02/10 19:47:45;;;;;;;11.52;5.60;;;13.70;44.60;;;;;;6237062;28;20037;-70
2022/02/10 19:50:46;;;;;;;15.30;5.55;;;13.60;44.50;;;;;;6240898;28;20109;-74
2022/02/10 19:53:48;;;;;;;15.32;6.55;;;13.60;44.60;;;;;;6247819;28;20067;-70
2022/02/10 19:56:52;;;;;;;15.50;5.57;;;13.60;44.60;;;;;;6225643;28;20025;-70
2022/02/10 19:59:54;;;;;;;21.10;6.18;;;13.50;44.60;;;;;;6240916;28;20030;-70
2022/02/10 20:03:06;;;;;;;29.35;11.88;;;13.50;44.60;;;;;;6238808;28;20100;-70
2022/02/10 20:06:07;;;;;;;28.63;9.95;;;13.40;44.70;;;;;;6241844;28;20032;-71
2022/02/10 20:09:07;;;;;;;17.88;7.32;;;13.40;44.90;;;;;;6242362;28;20021;-70
2022/02/10 20:12:08;;;;;;;41.58;17.35;;;13.30;45.10;;;;;;6240586;28;20241;-70
2022/02/10 20:15:11;;;;;;;47.63;17.30;;;13.20;45.20;;;;;;6224171;28;20033;-69
2022/02/10 20:18:14;;;;;;;57.97;19.80;;;13.20;45.50;;;;;;6243076;28;20045;-70
2022/02/10 20:21:15;;;;;;;18.63;8.02;;;13.20;45.70;;;;;;6223767;28;20037;-70
2022/02/10 20:24:16;;;;;;;25.35;8.73;;;13.10;46.00;;;;;;6236454;28;20661;-72
2022/02/10 20:27:17;;;;;;;24.83;9.63;;;13.10;46.30;;;;;;6236524;28;20033;-71
2022/02/10 20:30:18;;;;;;;27.33;8.55;;;13.10;46.60;;;;;;6227816;28;20061;-70
2022/02/10 20:33:22;;;;;;;18.65;7.47;;;13.00;46.70;;;;;;6224068;28;20084;-70
2022/02/10 20:36:23;;;;;;;18.90;7.07;;;13.00;47.00;;;;;;6236349;28;20053;-70
2022/02/10 20:39:27;;;;;;;26.33;8.05;;;13.00;47.10;;;;;;6253878;28;20395;-71
2022/02/10 20:42:30;;;;;;;27.77;7.85;;;12.90;47.20;;;;;;6246992;28;20021;-70
2022/02/10 20:45:40;;;;;;;17.88;6.88;;;12.90;47.20;;;;;;6240108;28;20138;-70
2022/02/10 20:48:42;;;;;;;12.63;5.22;;;12.90;47.10;;;;;;6227935;28;20041;-71
2022/02/10 20:51:45;;;;;;;14.00;5.70;;;12.90;47.00;;;;;;6222144;28;20446;-70
2022/02/10 20:54:46;;;;;;;12.25;4.75;;;12.90;46.80;;;;;;6222282;28;20021;-70
2022/02/10 20:57:47;;;;;;;15.30;6.05;;;12.90;46.70;;;;;;6241641;28;20022;-71
2022/02/10 21:00:50;;;;;;;15.35;6.20;;;12.80;46.50;;;;;;6240918;28;20056;-70
2022/02/10 21:03:51;;;;;;;17.42;6.35;;;12.80;46.40;;;;;;6242331;28;20039;-71
2022/02/10 21:06:59;;;;;;;18.38;5.82;;;12.80;46.40;;;;;;6250436;28;20049;-71
2022/02/10 21:10:04;;;;;;;16.83;5.70;;;12.80;46.40;;;;;;6243466;28;20260;-72
2022/02/10 21:13:07;;;;;;;11.43;5.18;;;12.80;46.40;;;;;;6246546;28;20052;-70
2022/02/10 21:16:08;;;;;;;17.02;6.25;;;12.80;46.40;;;;;;6231118;28;20431;-71
2022/02/10 21:19:12;;;;;;;13.10;4.93;;;12.70;46.30;;;;;;6242569;28;20474;-71
2022/02/10 21:22:17;;;;;;;18.15;5.63;;;12.70;46.40;;;;;;6233092;28;20037;-71
2022/02/10 21:25:34;;;;;;;12.45;5.13;;;12.60;46.40;;;;;;6242957;28;20395;-71
2022/02/10 21:28:37;;;;;;;17.55;6.47;;;12.50;46.40;;;;;;6242032;28;20406;-71
2022/02/10 21:31:44;;;;;;;17.58;5.95;;;12.60;46.50;;;;;;6227799;28;20518;-70
2022/02/10 21:35:01;;;;;;;16.88;5.93;;;12.70;46.70;;;;;;6243277;28;20025;-70
2022/02/10 21:45:21;;;;;;;16.48;5.15;;;12.40;46.90;;;;;;6239221;28;21559;-71
2022/02/10 21:55:06;;;;;;;20.38;6.88;;;12.30;47.30;;;;;;6217237;28;20589;-70
2022/02/10 22:21:28;;;;;;;21.73;8.15;;;12.00;49.10;;;;;;6211797;28;20029;-70
2022/02/10 22:25:13;;;;;;;19.50;8.07;;;12.00;49.30;;;;;;6217170;28;20026;-70
2022/02/10 22:31:59;;;;;;;21.33;6.95;;;11.90;49.20;;;;;;6200013;28;20041;-72
2022/02/10 22:35:02;;;;;;;16.55;6.47;;;11.90;49.20;;;;;;6200748;28;20034;-71
2022/02/10 22:38:03;;;;;;;22.10;7.63;;;12.10;49.30;;;;;;6231819;28;20026;-69
2022/02/10 22:41:12;;;;;;;21.30;7.38;;;11.90;49.20;;;;;;6232979;28;20049;-72
2022/02/10 22:48:16;;;;;;;22.27;7.85;;;11.90;49.40;;;;;;6210384;28;20038;-70
2022/02/10 22:51:21;;;;;;;19.52;7.47;;;11.90;49.50;;;;;;6214786;28;20185;-70
2022/02/10 22:54:22;;;;;;;15.82;7.03;;;11.80;49.60;;;;;;6216767;28;20410;-70
2022/02/10 22:57:23;;;;;;;18.30;7.78;;;11.80;49.60;;;;;;6212717;28;20029;-70
2022/02/10 23:00:32;;;;;;;19.60;7.85;;;11.80;49.60;;;;;;6211246;28;20353;-70
2022/02/10 23:03:38;;;;;;;14.45;6.95;;;11.80;49.60;;;;;;6215907;28;20026;-69
2022/02/10 23:06:40;;;;;;;14.32;6.72;;;11.80;49.70;;;;;;6211690;28;20026;-69
2022/02/10 23:09:48;;;;;;;11.10;6.07;;;11.80;49.90;;;;;;6217628;28;20021;-70
2022/02/10 23:12:49;;;;;;;;;;;11.70;50.00;;;;;;6231209;28;20387;-70
2022/02/10 23:15:51;;;;;;;24.60;6.88;;;11.60;50.00;;;;;;6216564;28;19910;-69
2022/02/10 23:18:52;;;;;;;29.52;7.03;;;11.60;50.00;;;;;;6229797;28;20077;-70
2022/02/10 23:21:53;;;;;;;19.90;7.60;;;11.50;50.10;;;;;;6211401;28;20034;-70
2022/02/10 23:25:03;;;;;;;12.00;5.85;;;11.50;50.20;;;;;;6212742;28;20030;-70
2022/02/10 23:28:07;;;;;;;21.45;6.40;;;11.50;50.20;;;;;;6198147;28;20053;-70
2022/02/10 23:31:10;;;;;;;16.35;6.13;;;11.50;50.20;;;;;;6213345;28;20033;-70
2022/02/10 23:34:11;;;;;;;14.88;5.88;;;11.50;50.20;;;;;;6213009;28;20034;-69
2022/02/10 23:37:12;;;;;;;19.10;6.32;;;11.50;50.20;;;;;;6228750;28;20053;-69
2022/02/10 23:40:13;;;;;;;21.02;6.63;;;11.50;50.20;;;;;;6232100;28;20026;-70
2022/02/10 23:43:15;;;;;;;17.25;7.28;;;11.60;50.20;;;;;;6212157;28;20034;-70
2022/02/10 23:46:18;;;;;;;15.65;7.50;;;11.60;50.20;;;;;;6211722;28;20528;-71
2022/02/10 23:49:22;;;;;;;22.58;7.53;;;11.60;50.20;;;;;;6214440;28;20037;-70
2022/02/10 23:52:25;;;;;;;22.00;8.45;;;11.60;50.40;;;;;;6215606;28;20022;-70
2022/02/10 23:55:32;;;;;;;20.80;8.07;;;11.60;50.50;;;;;;6227384;28;20030;-69
